createdAt,value
2019-05-22T00:01:19.100Z,12.81
2019-05-22T00:04:19.120Z,12.77
2019-05-22T00:07:19.034Z,12.82
2019-05-22T00:10:19.045Z,12.78
2019-05-22T00:13:18.970Z,12.78
2019-05-22T00:16:18.968Z,12.81
2019-05-22T00:19:18.931Z,12.77
2019-05-22T00:22:18.872Z,12.74
2019-05-22T00:25:18.861Z,12.87
2019-05-22T00:28:18.809Z,12.79
2019-05-22T00:31:18.820Z,12.82
2019-05-22T00:34:18.746Z,12.78
2019-05-22T00:37:18.738Z,12.81
2019-05-22T00:40:18.678Z,12.78
2019-05-22T00:43:18.694Z,12.75
2019-05-22T00:46:18.631Z,12.78
2019-05-22T00:49:18.582Z,12.71
2019-05-22T00:52:18.568Z,12.77
2019-05-22T00:55:18.535Z,12.81
2019-05-22T00:58:18.523Z,12.82
2019-05-22T01:01:18.468Z,12.78
2019-05-22T01:04:18.476Z,12.78
2019-05-22T01:07:18.403Z,12.75
2019-05-22T01:10:18.407Z,12.77
2019-05-22T01:13:18.358Z,12.69
2019-05-22T01:16:18.295Z,12.77
2019-05-22T01:19:18.292Z,12.69
2019-05-22T01:22:18.233Z,12.70
2019-05-22T01:25:18.227Z,12.71
2019-05-22T01:28:18.163Z,12.74
2019-05-22T01:31:18.165Z,12.69
2019-05-22T01:34:18.138Z,12.62
2019-05-22T01:37:18.110Z,12.59
2019-05-22T01:40:18.038Z,12.77
2019-05-22T01:43:18.032Z,12.63
2019-05-22T01:46:17.993Z,12.63
2019-05-22T01:49:17.964Z,12.67
2019-05-22T01:52:17.909Z,12.60
2019-05-22T01:55:17.894Z,12.57
2019-05-22T01:58:17.884Z,12.56
2019-05-22T02:01:17.839Z,12.56
2019-05-22T02:04:17.772Z,12.56
2019-05-22T02:07:17.749Z,12.62
2019-05-22T02:10:17.734Z,12.63
2019-05-22T02:13:17.672Z,12.57
2019-05-22T02:16:17.666Z,12.56
2019-05-22T02:19:17.609Z,12.56
2019-05-22T02:22:17.606Z,12.44
2019-05-22T02:25:17.544Z,12.44
2019-05-22T02:28:17.539Z,12.37
2019-05-22T02:31:24.536Z,12.31
2019-05-22T02:34:24.492Z,12.34
2019-05-22T02:37:17.444Z,12.26
2019-05-22T02:40:24.514Z,12.33
2019-05-22T02:43:17.377Z,12.31
2019-05-22T02:46:17.318Z,12.21
2019-05-22T02:49:17.309Z,12.24
2019-05-22T02:52:17.253Z,12.29
2019-05-22T02:55:17.258Z,12.29
2019-05-22T02:58:17.223Z,12.21
2019-05-22T03:01:17.160Z,12.21
2019-05-22T03:04:17.150Z,12.19
2019-05-22T03:07:17.094Z,12.23
2019-05-22T03:10:17.095Z,12.24
2019-05-22T03:13:17.056Z,12.20
2019-05-22T03:16:16.994Z,12.09
2019-05-22T03:19:16.999Z,12.13
2019-05-22T03:22:16.932Z,12.13
2019-05-22T03:25:16.924Z,12.12
2019-05-22T03:28:16.891Z,12.12
2019-05-22T03:31:16.843Z,12.02
2019-05-22T03:34:16.847Z,12.13
2019-05-22T03:37:16.779Z,12.01
2019-05-22T03:40:16.771Z,12.06
2019-05-22T03:43:16.720Z,12.09
2019-05-22T03:46:16.695Z,12.12
2019-05-22T03:49:29.342Z,12.13
2019-05-22T03:52:17.640Z,12.06
2019-05-22T03:55:16.585Z,12.15
2019-05-22T03:58:16.577Z,12.11
2019-05-22T04:01:16.514Z,12.13
2019-05-22T04:04:16.516Z,12.12
2019-05-22T04:07:16.457Z,12.06
2019-05-22T04:10:16.439Z,12.09
2019-05-22T04:13:16.478Z,12.09
2019-05-22T04:16:16.375Z,12.11
2019-05-22T04:19:16.339Z,11.99
2019-05-22T04:22:16.321Z,12.08
2019-05-22T04:25:16.250Z,12.01
2019-05-22T04:28:16.246Z,11.99
2019-05-22T04:31:16.214Z,11.99
2019-05-22T04:34:16.156Z,12.08
2019-05-22T04:37:16.152Z,12.01
2019-05-22T04:40:16.088Z,11.99
2019-05-22T04:43:20.135Z,12.02
2019-05-22T04:46:16.053Z,11.94
2019-05-22T04:49:15.996Z,11.97
2019-05-22T04:52:15.987Z,11.94
2019-05-22T04:55:15.928Z,12.04
2019-05-22T04:58:15.922Z,11.97
2019-05-22T05:01:15.864Z,11.87
2019-05-22T05:04:15.855Z,11.94
2019-05-22T05:07:15.837Z,12.08
2019-05-22T05:10:15.798Z,12.01
2019-05-22T05:13:15.745Z,11.96
2019-05-22T05:16:15.701Z,12.01
2019-05-22T05:19:15.690Z,11.96
2019-05-22T05:22:15.635Z,12.08
2019-05-22T05:25:15.640Z,12.12
2019-05-22T05:28:15.574Z,12.15
2019-05-22T05:31:15.601Z,12.08
2019-05-22T05:34:15.540Z,12.02
2019-05-22T05:37:15.475Z,12.12
2019-05-22T05:40:15.480Z,11.89
2019-05-22T05:43:15.420Z,12.01
2019-05-22T05:46:15.405Z,11.87
2019-05-22T05:49:15.369Z,11.89
2019-05-22T05:52:15.330Z,11.93
2019-05-22T05:55:15.280Z,11.87
2019-05-22T05:58:15.288Z,12.02
2019-05-22T06:01:15.231Z,11.94
2019-05-22T06:04:15.215Z,11.89
2019-05-22T06:07:15.156Z,11.85
2019-05-22T06:10:15.147Z,11.90
2019-05-22T06:13:15.097Z,11.87
2019-05-22T06:16:15.086Z,11.83
2019-05-22T06:19:15.019Z,11.72
2019-05-22T06:22:15.044Z,11.77
2019-05-22T06:25:14.993Z,11.70
2019-05-22T06:28:14.943Z,11.64
2019-05-22T06:31:14.895Z,11.77
2019-05-22T06:34:14.870Z,11.72
2019-05-22T06:37:14.875Z,11.71
2019-05-22T06:40:14.797Z,11.70
2019-05-22T06:43:14.774Z,11.70
2019-05-22T06:46:14.767Z,11.70
2019-05-22T06:49:14.715Z,11.72
2019-05-22T06:52:14.700Z,11.77
2019-05-22T06:55:14.671Z,11.93
2019-05-22T06:58:14.630Z,12.09
2019-05-22T07:01:14.609Z,12.33
2019-05-22T07:04:14.539Z,12.33
2019-05-22T07:07:14.549Z,12.33
2019-05-22T07:10:14.543Z,12.38
2019-05-22T07:13:14.459Z,12.29
2019-05-22T07:16:14.419Z,12.44
2019-05-22T07:19:14.412Z,12.42
2019-05-22T07:22:14.355Z,12.39
2019-05-22T07:25:14.402Z,12.39
2019-05-22T07:28:14.299Z,12.52
2019-05-22T07:31:14.244Z,12.46
2019-05-22T07:34:14.244Z,12.39
2019-05-22T07:37:14.195Z,12.62
2019-05-22T07:40:14.175Z,12.45
2019-05-22T07:43:14.189Z,12.48
2019-05-22T07:46:14.084Z,12.60
2019-05-22T07:49:14.073Z,12.64
2019-05-22T07:52:14.019Z,12.69
2019-05-22T07:55:13.998Z,12.70
2019-05-22T07:58:13.969Z,12.63
2019-05-22T08:01:14.325Z,12.77
2019-05-22T08:04:13.888Z,12.82
2019-05-22T08:07:13.874Z,12.78
2019-05-22T08:10:14.049Z,12.66
2019-05-22T08:13:13.815Z,12.63
2019-05-22T08:16:13.773Z,12.51
2019-05-22T08:19:13.751Z,12.46
2019-05-22T08:22:13.730Z,12.41
2019-05-22T08:25:13.663Z,12.57
2019-05-22T08:28:13.655Z,12.74
2019-05-22T08:31:13.610Z,13.11
2019-05-22T08:34:13.579Z,13.06
2019-05-22T08:37:13.543Z,13.32
2019-05-22T08:40:13.503Z,13.33
2019-05-22T08:43:13.482Z,13.38
2019-05-22T08:46:13.464Z,13.11
2019-05-22T08:49:13.409Z,12.89
2019-05-22T08:52:22.893Z,12.89
2019-05-22T08:55:14.374Z,12.64
2019-05-22T08:58:13.335Z,12.70
2019-05-22T09:01:13.275Z,12.64
2019-05-22T09:04:13.258Z,12.88
2019-05-22T09:07:13.261Z,13.46
2019-05-22T09:10:13.209Z,14.01
2019-05-22T09:13:13.156Z,14.37
2019-05-22T09:16:20.159Z,14.91
2019-05-22T09:19:13.578Z,15.60
2019-05-22T09:22:20.103Z,15.28
2019-05-22T09:25:13.568Z,16.52
2019-05-22T09:28:12.984Z,17.53
2019-05-22T09:31:13.423Z,16.22
2019-05-22T09:34:12.917Z,16.33
2019-05-22T09:37:12.904Z,16.42
2019-05-22T09:40:12.858Z,16.62
2019-05-22T09:43:12.842Z,17.11
2019-05-22T09:46:12.788Z,16.26
2019-05-22T09:49:12.768Z,15.68
2019-05-22T09:52:12.741Z,15.46
2019-05-22T09:55:12.706Z,15.54
2019-05-22T09:58:12.662Z,14.95
2019-05-22T10:01:12.663Z,15.03
2019-05-22T10:04:12.598Z,15.24
2019-05-22T10:07:12.594Z,15.01
2019-05-22T10:10:12.558Z,14.81
2019-05-22T10:13:12.521Z,15.02
2019-05-22T10:16:12.473Z,14.86
2019-05-22T10:19:12.439Z,15.28
2019-05-22T10:22:12.444Z,16.58
2019-05-22T10:25:19.414Z,17.46
2019-05-22T10:28:12.385Z,17.48
2019-05-22T10:31:14.954Z,16.68
2019-05-22T10:34:12.295Z,15.24
2019-05-22T10:37:12.277Z,14.88
2019-05-22T10:40:12.251Z,15.20
2019-05-22T10:43:12.178Z,14.94
2019-05-22T10:46:12.251Z,14.99
2019-05-22T10:49:12.145Z,15.56
2019-05-22T10:52:12.964Z,16.07
2019-05-22T10:55:12.043Z,16.06
2019-05-22T10:58:12.062Z,15.74
2019-05-22T11:01:19.032Z,16.98
2019-05-22T11:04:19.624Z,16.59
2019-05-22T11:07:18.994Z,17.13
2019-05-22T11:10:11.918Z,17.47
2019-05-22T11:13:11.906Z,17.99
2019-05-22T11:16:11.828Z,17.48
2019-05-22T11:19:11.820Z,17.51
2019-05-22T11:22:11.788Z,17.25
2019-05-22T11:25:11.757Z,17.70
2019-05-22T11:28:11.721Z,17.32
2019-05-22T11:31:11.744Z,17.46
2019-05-22T11:34:11.631Z,18.10
2019-05-22T11:37:11.618Z,18.68
2019-05-22T11:40:11.590Z,18.62
2019-05-22T11:43:11.570Z,18.25
2019-05-22T11:46:11.498Z,18.28
2019-05-22T11:49:11.501Z,18.76
2019-05-22T11:52:11.472Z,18.70
2019-05-22T11:55:11.403Z,19.87
2019-05-22T11:58:11.434Z,19.47
2019-05-22T12:01:11.339Z,19.35
2019-05-22T12:04:11.442Z,19.51
2019-05-22T12:07:11.273Z,19.21
2019-05-22T12:10:11.277Z,19.87
2019-05-22T12:13:11.511Z,19.79
2019-05-22T12:16:11.209Z,24.45
2019-05-22T12:19:11.176Z,26.37
2019-05-22T12:22:11.113Z,23.08
2019-05-22T12:25:11.132Z,22.29
2019-05-22T12:28:11.051Z,19.69
2019-05-22T12:31:11.058Z,22.01
2019-05-22T12:34:10.986Z,25.06
2019-05-22T12:37:10.986Z,26.08
2019-05-22T12:40:10.948Z,22.07
2019-05-22T12:43:10.928Z,24.90
2019-05-22T12:46:10.857Z,21.78
2019-05-22T12:49:10.867Z,25.99
2019-05-22T12:52:10.825Z,24.22
2019-05-22T12:55:10.799Z,27.04
2019-05-22T12:58:10.768Z,25.99
2019-05-22T13:01:10.755Z,26.28
2019-05-22T13:04:10.678Z,23.42
2019-05-22T13:07:10.678Z,25.98
2019-05-22T13:10:10.612Z,27.47
2019-05-22T13:13:10.667Z,27.96
2019-05-22T13:16:10.584Z,26.92
2019-05-22T13:19:10.552Z,25.28
2019-05-22T13:22:10.523Z,24.90
2019-05-22T13:25:10.463Z,24.54
2019-05-22T13:28:10.462Z,24.26
2019-05-22T13:31:10.395Z,26.65
2019-05-22T13:34:10.412Z,24.94
2019-05-22T13:37:10.339Z,21.34
2019-05-22T13:40:26.728Z,21.90
2019-05-22T13:43:11.270Z,22.34
2019-05-22T13:46:10.276Z,22.56
2019-05-22T13:49:10.213Z,21.19
2019-05-22T13:52:10.212Z,20.33
2019-05-22T13:55:10.146Z,23.87
2019-05-22T13:58:10.152Z,23.94
2019-05-22T14:01:10.086Z,22.60
2019-05-22T14:04:10.086Z,24.07
2019-05-22T14:07:10.044Z,24.95
2019-05-22T14:10:10.000Z,25.56
2019-05-22T14:13:09.991Z,25.87
2019-05-22T14:16:09.924Z,26.58
2019-05-22T14:19:09.922Z,24.59
2019-05-22T14:22:09.869Z,22.13
2019-05-22T14:25:09.862Z,22.12
2019-05-22T14:28:09.808Z,21.59
2019-05-22T14:31:09.801Z,23.67
2019-05-22T14:34:09.775Z,22.32
2019-05-22T14:37:09.709Z,23.67
2019-05-22T14:40:09.709Z,24.85
2019-05-22T14:43:09.642Z,25.39
2019-05-22T14:46:09.642Z,24.20
2019-05-22T14:49:09.589Z,22.23
2019-05-22T14:52:09.574Z,23.89
2019-05-22T14:55:09.518Z,23.42
2019-05-22T14:58:09.525Z,23.20
2019-05-22T15:01:09.463Z,22.49
2019-05-22T15:04:09.456Z,20.96
2019-05-22T15:07:09.399Z,19.70
2019-05-22T15:10:09.404Z,23.55
2019-05-22T15:13:09.323Z,25.46
2019-05-22T15:16:09.347Z,25.01
2019-05-22T15:19:09.264Z,24.59
2019-05-22T15:22:09.313Z,26.21
2019-05-22T15:25:09.202Z,26.27
2019-05-22T15:28:09.221Z,25.91
2019-05-22T15:31:09.135Z,25.83
2019-05-22T15:34:09.135Z,23.01
2019-05-22T15:37:09.073Z,24.88
2019-05-22T15:40:09.076Z,22.38
2019-05-22T15:43:09.015Z,20.98
2019-05-22T15:46:09.015Z,20.39
2019-05-22T15:49:08.992Z,20.03
2019-05-22T15:52:08.918Z,22.25
2019-05-22T15:55:08.927Z,23.62
2019-05-22T15:58:08.879Z,24.19
2019-05-22T16:01:08.855Z,24.57
2019-05-22T16:04:15.831Z,23.57
2019-05-22T16:07:08.808Z,22.44
2019-05-22T16:10:08.730Z,21.54
2019-05-22T16:13:08.746Z,23.02
2019-05-22T16:16:08.668Z,22.35
2019-05-22T16:19:08.659Z,22.47
2019-05-22T16:22:08.636Z,22.02
2019-05-22T16:25:08.585Z,20.95
2019-05-22T16:28:08.597Z,20.30
2019-05-22T16:31:08.530Z,20.08
2019-05-22T16:34:08.499Z,19.93
2019-05-22T16:37:08.448Z,19.24
2019-05-22T16:40:08.427Z,19.68
2019-05-22T16:43:08.398Z,19.73
2019-05-22T16:46:08.347Z,20.10
2019-05-22T16:49:08.340Z,20.69
2019-05-22T16:52:08.319Z,20.65
2019-05-22T16:55:08.286Z,20.12
2019-05-22T16:58:08.215Z,19.86
2019-05-22T17:01:08.216Z,19.68
2019-05-22T17:04:08.183Z,19.36
2019-05-22T17:07:08.163Z,19.55
2019-05-22T17:10:08.090Z,19.58
2019-05-22T17:13:12.027Z,19.57
2019-05-22T17:16:08.032Z,19.63
2019-05-22T17:19:25.724Z,19.50
2019-05-22T17:22:08.967Z,19.21
2019-05-22T17:25:07.945Z,19.11
2019-05-22T17:28:07.917Z,18.77
2019-05-22T17:31:07.861Z,18.76
2019-05-22T17:34:07.871Z,18.58
2019-05-22T17:37:07.802Z,18.31
2019-05-22T17:40:07.814Z,18.13
2019-05-22T17:43:07.738Z,17.95
2019-05-22T17:46:07.733Z,17.89
2019-05-22T17:49:07.673Z,17.84
2019-05-22T17:52:07.668Z,17.70
2019-05-22T17:55:07.633Z,17.51
2019-05-22T17:58:07.573Z,17.43
2019-05-22T18:01:07.566Z,17.32
2019-05-22T18:04:07.516Z,17.18
2019-05-22T18:07:07.500Z,17.08
2019-05-22T18:10:07.451Z,16.89
2019-05-22T18:13:07.461Z,16.86
2019-05-22T18:16:07.385Z,16.73
2019-05-22T18:19:07.379Z,16.52
2019-05-22T18:22:07.353Z,16.33
2019-05-22T18:25:07.313Z,16.20
2019-05-22T18:28:07.284Z,16.01
2019-05-22T18:31:07.251Z,15.81
2019-05-22T18:34:07.191Z,15.84
2019-05-22T18:37:07.175Z,15.75
2019-05-22T18:40:07.138Z,15.70
2019-05-22T18:43:07.106Z,15.66
2019-05-22T18:46:07.070Z,15.38
2019-05-22T18:49:07.050Z,15.30
2019-05-22T18:52:07.001Z,15.13
2019-05-22T18:55:06.979Z,14.91
2019-05-22T18:58:06.930Z,14.64
2019-05-22T19:01:06.921Z,14.50
2019-05-22T19:04:06.876Z,14.17
2019-05-22T19:07:06.844Z,13.96
2019-05-22T19:10:06.810Z,13.89
2019-05-22T19:13:06.780Z,14.12
2019-05-22T19:16:06.735Z,14.13
2019-05-22T19:19:06.727Z,13.95
2019-05-22T19:22:06.698Z,13.79
2019-05-22T19:25:06.651Z,13.62
2019-05-22T19:28:06.613Z,13.59
2019-05-22T19:31:06.593Z,13.37
2019-05-22T19:34:06.548Z,13.18
2019-05-22T19:37:06.527Z,12.89
2019-05-22T19:40:06.489Z,12.87
2019-05-22T19:43:06.455Z,12.63
2019-05-22T19:46:06.427Z,12.69
2019-05-22T19:49:06.378Z,12.66
2019-05-22T19:52:06.358Z,12.54
2019-05-22T19:55:07.134Z,12.38
2019-05-22T19:58:06.299Z,12.13
2019-05-22T20:01:06.250Z,11.93
2019-05-22T20:04:06.235Z,11.74
2019-05-22T20:07:06.207Z,11.77
2019-05-22T20:10:06.153Z,11.61
2019-05-22T20:13:06.158Z,11.59
2019-05-22T20:16:06.097Z,11.71
2019-05-22T20:19:06.087Z,11.52
2019-05-22T20:22:06.024Z,11.54
2019-05-22T20:25:06.009Z,11.44
2019-05-22T20:28:06.005Z,11.19
2019-05-22T20:31:05.933Z,11.19
2019-05-22T20:34:05.919Z,11.06
2019-05-22T20:37:05.863Z,10.94
2019-05-22T20:40:05.885Z,10.94
2019-05-22T20:43:05.834Z,10.76
2019-05-22T20:46:05.769Z,10.58
2019-05-22T20:49:05.744Z,10.46
2019-05-22T20:52:05.709Z,10.39
2019-05-22T20:55:05.696Z,10.25
2019-05-22T20:58:05.664Z,10.19
2019-05-22T21:01:05.634Z,10.14
2019-05-22T21:04:05.583Z,10.22
2019-05-22T21:07:05.540Z,10.06
2019-05-22T21:10:05.531Z,10.12
2019-05-22T21:13:05.480Z,10.03
2019-05-22T21:16:05.474Z,10.07
2019-05-22T21:19:05.444Z,10.18
2019-05-22T21:22:05.383Z,10.19
2019-05-22T21:25:05.356Z,10.14
2019-05-22T21:28:05.311Z,10.00
2019-05-22T21:31:05.294Z,9.94
2019-05-22T21:34:05.265Z,9.88
2019-05-22T21:37:05.217Z,9.83
2019-05-22T21:40:05.250Z,9.88
2019-05-22T21:43:05.150Z,9.85
2019-05-22T21:46:05.155Z,9.82
2019-05-22T21:49:05.086Z,9.81
2019-05-22T21:52:05.082Z,9.60
2019-05-22T21:55:05.032Z,9.60
2019-05-22T21:58:05.417Z,9.58
2019-05-22T22:01:05.033Z,9.40
2019-05-22T22:04:04.987Z,9.45
2019-05-22T22:07:04.921Z,9.45
2019-05-22T22:10:04.859Z,9.38
2019-05-22T22:13:07.657Z,9.34
2019-05-22T22:16:04.795Z,9.32
2019-05-22T22:19:04.818Z,9.32
2019-05-22T22:22:04.730Z,9.21
2019-05-22T22:25:04.715Z,9.21
2019-05-22T22:28:04.690Z,9.28
2019-05-22T22:31:04.635Z,9.24
2019-05-22T22:34:04.626Z,9.23
2019-05-22T22:37:04.574Z,9.38
2019-05-22T22:40:04.645Z,9.27
2019-05-22T22:43:04.505Z,9.24
2019-05-22T22:46:04.500Z,9.25
2019-05-22T22:49:04.468Z,9.45
2019-05-22T22:52:04.437Z,9.32
2019-05-22T22:55:04.386Z,9.35
2019-05-22T22:58:16.814Z,9.27
2019-05-22T23:01:05.325Z,9.28
2019-05-22T23:04:04.302Z,9.25
2019-05-22T23:07:04.250Z,9.30
2019-05-22T23:10:04.229Z,9.34
2019-05-22T23:13:04.235Z,9.27
2019-05-22T23:16:04.149Z,9.12
2019-05-22T23:19:04.140Z,8.97
2019-05-22T23:22:04.114Z,9.04
2019-05-22T23:25:04.224Z,9.01
2019-05-22T23:28:04.046Z,8.83
2019-05-22T23:31:04.033Z,8.83
2019-05-22T23:34:03.972Z,8.84
2019-05-22T23:37:03.949Z,8.83
2019-05-22T23:40:03.892Z,8.84
2019-05-22T23:43:03.907Z,8.83
2019-05-22T23:46:03.831Z,8.83
2019-05-22T23:49:03.811Z,8.75
2019-05-22T23:52:03.800Z,8.66
2019-05-22T23:55:03.729Z,8.66
2019-05-22T23:58:03.709Z,8.78
